This is the latest recevied weather packets stored in our database for station/object AA0PB. If no packets are shown the sender has not sent any weather packets the latest 10 day(s).
| Time | Temp. | Humidity | Pressure | Rain* | Wind** | Luminosity | Snow |
|---|---|---|---|---|---|---|---|
| 1777933291 | 24.44° C | 57% | 1012.1 hPa | 0 mm | - | 593 W/m² | - |
| 1777932988 | 24.44° C | 58% | 1011.9 hPa | 0 mm | - | 594 W/m² | - |
| 1777932685 | 25.56° C | 55% | 1012.2 hPa | 0 mm | - | 609 W/m² | - |
| 1777932381 | 24.44° C | 58% | 1012.2 hPa | 0 mm | - | 612 W/m² | - |
| 1777932080 | 22.78° C | 60% | 1012.3 hPa | 0 mm | - | 626 W/m² | - |
| 1777931775 | 22.22° C | 63% | 1012.4 hPa | 0 mm | - | 633 W/m² | - |
| 1777931473 | 23.33° C | 62% | 1012.3 hPa | 0 mm | - | 637 W/m² | - |
| 1777931168 | 22.78° C | 64% | 1012.3 hPa | 0 mm | - | 631 W/m² | - |
| 1777930865 | 21.67° C | 65% | 1012.2 hPa | 0 mm | - | 640 W/m² | - |
| 1777930561 | 22.22° C | 66% | 1012.2 hPa | 0 mm | - | 655 W/m² | - |
| 1777930258 | 22.78° C | 63% | 1012.6 hPa | 0 mm | - | 660 W/m² | - |
| 1777929954 | 22.78° C | 61% | 1012.4 hPa | 0 mm | - | 664 W/m² | - |
| 1777929652 | 22.78° C | 61% | 1012.7 hPa | 0 mm | - | 668 W/m² | - |
| 1777929349 | 22.78° C | 63% | 1012.7 hPa | 0 mm | - | 675 W/m² | - |
| 1777929045 | 22.22° C | 62% | 1013 hPa | 0 mm | - | 678 W/m² | - |
| 1777928743 | 21.67° C | 65% | 1013.1 hPa | 0 mm | - | 678 W/m² | - |
| 1777928439 | 21.11° C | 67% | 1012.9 hPa | 0 mm | - | 683 W/m² | - |
| 1777928137 | 21.67° C | 64% | 1013 hPa | 0 mm | - | 687 W/m² | - |
| 1777927835 | 21.11° C | 65% | 1013.2 hPa | 0 mm | - | 674 W/m² | - |
| 1777927533 | 21.67° C | 64% | 1013.3 hPa | 0 mm | - | 695 W/m² | - |
| 1777927232 | 21.11° C | 66% | 1013.2 hPa | 0 mm | - | 694 W/m² | - |
| 1777926929 | 20.56° C | 67% | 1013.5 hPa | 0 mm | - | 672 W/m² | - |
| 1777926627 | 20.56° C | 69% | 1013.5 hPa | 0 mm | - | 699 W/m² | - |
| 1777926322 | 20.56° C | 69% | 1013.4 hPa | 0 mm | - | 696 W/m² | - |
| 1777926019 | 20.56° C | 68% | 1013.4 hPa | 0 mm | - | 699 W/m² | - |
* Rain latest hour (hover to see other rain measurements)
** Current wind speed in m/s (hover to see current wind gust speed)